West Rushville, OH (43163)

2:57 AM EDT on September 05, 2015 (GMT -0400)
Fairfield County Weather | | Change Station
CLOSE
Current Station
Personal Weather Station
Location: Lancaster, OH
Elevation: 958 ft
Nearby Weather Stations

Elev 958 ft 39.75 °N, 82.57 °W | Updated 2 seconds ago

Partly Cloudy
Partly Cloudy
64.3 °F
Feels Like 64.3 °F
N
0.0
Wind Variable Wind from West
Gusts 0.0 mph

Today
High -- | Low -- °F
--% Chance of Precip.
Yesterday
High -- | Low -- °F
Precip. -- in
7:01 AM 7:55 PM
Waning Gibbous, 51% visible
Pressure 30.09 in
Visibility 4.0 miles
Clouds Clear
Dew Point 64 °F
Humidity 98%
Rainfall 0.00 in
Snow Depth Not available.
UV 0 out of 12
Pollen 9.90 out of 12
Air Quality Not available.
Flu Activity Not available.
METAR KLHQ 050653Z AUTO 01004KT 4SM BR CLR 18/17 A3011 RMK AO2 SLP189 T01780167
Pressure 30.09 in
Visibility 4.0 miles
Clouds Clear
Dew Point 64 °F
Humidity 98%
Rainfall 0.00 in
Snow Depth Not available.
UV 0 out of 12
Pollen 9.90 out of 12
Air Quality Not available.
Flu Activity Not available.
METAR KLHQ 050653Z AUTO 01004KT 4SM BR CLR 18/17 A3011 RMK AO2 SLP189 T01780167

10-Day Weather Forecast

×

Almanac

Astronomy

Sep. 05, 2015 Rise Set
Actual Time
Civil Twilight
Nautical Twilight
Astronomical Twilight
Moon
Length of Visible Light
Length of Day
Tomorrow will be .
, % of the Moon is Illuminated

Today's Extremes

State Highs State Lows

Community

WunderPhotos

Upload Photos

1,852,430 photos uploaded!

WunderBlogs® & News

Nearby

Air Quality

  Air Quality AQ Index Pollutant
Not available.

Snow Depth

Station Depth Elevation

Earthquake Activity

City Distance Mag. Time & Date
Minimum magnitude displayed is 2.5.

Coastal Water Temperatures

Place Temperature

Stations

Nearby Weather Stations

Station Location Temp. Windchill Dew Point Humidity Wind Precip. Elev Updated Type